sensor_id;sensor_type;location;lat;lon;timestamp;noise_LAeq;noise_LA_min;noise_LA_max;noise_LA01;noise_LA95
84579;Laerm;74804;52.100;5.116;2023-12-22T00:01:35;41.92;36.48;54.99;;
84579;Laerm;74804;52.100;5.116;2023-12-22T00:04:07;42.21;35.76;51.23;;
84579;Laerm;74804;52.100;5.116;2023-12-22T00:06:38;41.20;35.91;47.38;;
84579;Laerm;74804;52.100;5.116;2023-12-22T00:09:10;41.24;37.17;47.14;;
84579;Laerm;74804;52.100;5.116;2023-12-22T00:11:44;41.05;35.43;47.93;;
84579;Laerm;74804;52.100;5.116;2023-12-22T00:14:15;42.65;37.34;50.68;;
84579;Laerm;74804;52.100;5.116;2023-12-22T00:16:47;43.67;37.78;48.94;;
84579;Laerm;74804;52.100;5.116;2023-12-22T00:19:18;46.51;38.34;56.52;;
84579;Laerm;74804;52.100;5.116;2023-12-22T00:21:52;43.09;36.91;49.21;;
84579;Laerm;74804;52.100;5.116;2023-12-22T00:24:23;40.82;36.05;47.65;;
84579;Laerm;74804;52.100;5.116;2023-12-22T00:26:56;40.04;34.48;46.39;;
84579;Laerm;74804;52.100;5.116;2023-12-22T00:29:28;38.72;34.19;49.64;;
84579;Laerm;74804;52.100;5.116;2023-12-22T00:32:03;42.32;34.78;52.93;;
84579;Laerm;74804;52.100;5.116;2023-12-22T00:34:37;38.14;34.00;45.33;;
84579;Laerm;74804;52.100;5.116;2023-12-22T00:37:08;48.10;36.21;54.89;;
84579;Laerm;74804;52.100;5.116;2023-12-22T00:39:39;49.54;44.63;53.10;;
84579;Laerm;74804;52.100;5.116;2023-12-22T00:42:13;48.04;43.66;54.76;;
84579;Laerm;74804;52.100;5.116;2023-12-22T00:44:44;47.55;44.07;52.54;;
84579;Laerm;74804;52.100;5.116;2023-12-22T00:47:15;46.22;41.13;56.28;;
84579;Laerm;74804;52.100;5.116;2023-12-22T00:49:47;44.98;40.42;54.55;;
84579;Laerm;74804;52.100;5.116;2023-12-22T00:52:18;47.03;41.64;56.12;;
84579;Laerm;74804;52.100;5.116;2023-12-22T00:54:49;47.24;40.81;55.93;;
84579;Laerm;74804;52.100;5.116;2023-12-22T00:57:23;42.71;38.95;57.45;;
84579;Laerm;74804;52.100;5.116;2023-12-22T00:59:54;43.07;38.85;50.67;;
84579;Laerm;74804;52.100;5.116;2023-12-22T01:02:25;41.93;37.67;52.10;;
84579;Laerm;74804;52.100;5.116;2023-12-22T01:04:56;48.46;39.92;59.10;;
84579;Laerm;74804;52.100;5.116;2023-12-22T01:07:27;50.70;42.44;61.43;;
84579;Laerm;74804;52.100;5.116;2023-12-22T01:09:58;45.87;39.19;52.27;;
84579;Laerm;74804;52.100;5.116;2023-12-22T01:12:33;42.53;38.82;49.82;;
84579;Laerm;74804;52.100;5.116;2023-12-22T01:15:05;42.23;37.51;50.73;;
84579;Laerm;74804;52.100;5.116;2023-12-22T01:17:37;41.57;37.51;52.10;;
84579;Laerm;74804;52.100;5.116;2023-12-22T01:20:08;41.47;36.15;51.10;;
84579;Laerm;74804;52.100;5.116;2023-12-22T01:22:40;38.12;35.16;52.09;;
84579;Laerm;74804;52.100;5.116;2023-12-22T01:25:11;40.03;35.63;49.40;;
84579;Laerm;74804;52.100;5.116;2023-12-22T01:27:45;40.38;35.34;51.91;;
84579;Laerm;74804;52.100;5.116;2023-12-22T01:30:18;40.73;35.46;51.62;;
84579;Laerm;74804;52.100;5.116;2023-12-22T01:32:49;41.89;38.79;46.12;;
84579;Laerm;74804;52.100;5.116;2023-12-22T01:35:20;41.20;35.83;49.78;;
84579;Laerm;74804;52.100;5.116;2023-12-22T01:37:51;41.17;36.80;51.78;;
84579;Laerm;74804;52.100;5.116;2023-12-22T01:40:24;39.99;35.14;49.50;;
84579;Laerm;74804;52.100;5.116;2023-12-22T01:42:58;39.48;34.97;48.13;;
84579;Laerm;74804;52.100;5.116;2023-12-22T01:45:29;38.76;34.59;56.21;;
84579;Laerm;74804;52.100;5.116;2023-12-22T01:48:00;36.99;33.93;43.91;;
84579;Laerm;74804;52.100;5.116;2023-12-22T01:50:31;38.00;33.67;53.73;;
84579;Laerm;74804;52.100;5.116;2023-12-22T01:53:04;36.84;33.23;47.21;;
84579;Laerm;74804;52.100;5.116;2023-12-22T01:55:35;36.61;34.08;42.02;;
84579;Laerm;74804;52.100;5.116;2023-12-22T01:58:08;37.49;34.15;48.23;;
84579;Laerm;74804;52.100;5.116;2023-12-22T02:00:41;38.80;33.99;51.40;;
84579;Laerm;74804;52.100;5.116;2023-12-22T02:03:12;36.94;33.23;48.01;;
84579;Laerm;74804;52.100;5.116;2023-12-22T02:05:43;34.90;32.42;46.62;;
84579;Laerm;74804;52.100;5.116;2023-12-22T02:08:15;36.07;32.74;41.75;;
84579;Laerm;74804;52.100;5.116;2023-12-22T02:10:49;36.13;33.49;41.96;;
84579;Laerm;74804;52.100;5.116;2023-12-22T02:13:22;38.23;33.29;50.98;;
84579;Laerm;74804;52.100;5.116;2023-12-22T02:15:55;37.17;33.44;45.11;;
84579;Laerm;74804;52.100;5.116;2023-12-22T02:18:30;39.77;34.32;50.78;;
84579;Laerm;74804;52.100;5.116;2023-12-22T02:21:04;38.13;34.12;47.31;;
84579;Laerm;74804;52.100;5.116;2023-12-22T02:23:37;37.52;34.39;45.71;;
84579;Laerm;74804;52.100;5.116;2023-12-22T02:26:10;37.82;34.76;46.03;;
84579;Laerm;74804;52.100;5.116;2023-12-22T02:28:42;40.09;34.81;50.73;;
84579;Laerm;74804;52.100;5.116;2023-12-22T02:31:17;40.22;36.07;46.49;;
84579;Laerm;74804;52.100;5.116;2023-12-22T02:33:48;40.92;35.61;50.14;;
84579;Laerm;74804;52.100;5.116;2023-12-22T02:36:22;42.44;35.31;49.23;;
84579;Laerm;74804;52.100;5.116;2023-12-22T02:38:58;41.88;35.67;62.21;;
84579;Laerm;74804;52.100;5.116;2023-12-22T02:41:30;40.27;34.71;45.79;;
84579;Laerm;74804;52.100;5.116;2023-12-22T02:44:02;40.91;36.09;47.77;;
84579;Laerm;74804;52.100;5.116;2023-12-22T02:46:33;39.82;34.81;45.55;;
84579;Laerm;74804;52.100;5.116;2023-12-22T02:49:04;42.46;36.38;48.35;;
84579;Laerm;74804;52.100;5.116;2023-12-22T02:51:35;43.07;37.38;59.48;;
84579;Laerm;74804;52.100;5.116;2023-12-22T02:54:09;41.60;35.84;50.55;;
84579;Laerm;74804;52.100;5.116;2023-12-22T02:56:40;42.51;36.55;49.69;;
84579;Laerm;74804;52.100;5.116;2023-12-22T02:59:12;41.53;35.18;48.70;;
84579;Laerm;74804;52.100;5.116;2023-12-22T03:01:43;41.74;36.30;48.68;;
84579;Laerm;74804;52.100;5.116;2023-12-22T03:04:14;43.07;34.53;52.41;;
84579;Laerm;74804;52.100;5.116;2023-12-22T03:06:45;43.10;34.47;52.28;;
84579;Laerm;74804;52.100;5.116;2023-12-22T03:09:19;41.17;35.03;54.63;;
84579;Laerm;74804;52.100;5.116;2023-12-22T03:11:50;39.84;33.61;47.89;;
84579;Laerm;74804;52.100;5.116;2023-12-22T03:14:24;41.81;35.95;47.96;;
84579;Laerm;74804;52.100;5.116;2023-12-22T03:16:55;38.58;34.09;50.66;;
84579;Laerm;74804;52.100;5.116;2023-12-22T03:19:26;39.68;35.13;47.81;;
84579;Laerm;74804;52.100;5.116;2023-12-22T03:21:57;41.14;35.63;49.74;;
84579;Laerm;74804;52.100;5.116;2023-12-22T03:24:31;40.38;34.40;47.13;;
84579;Laerm;74804;52.100;5.116;2023-12-22T03:27:03;43.68;34.73;54.90;;
84579;Laerm;74804;52.100;5.116;2023-12-22T03:29:34;40.09;34.85;50.53;;
84579;Laerm;74804;52.100;5.116;2023-12-22T03:32:05;40.30;34.35;49.16;;
84579;Laerm;74804;52.100;5.116;2023-12-22T03:34:36;46.95;38.15;57.83;;
84579;Laerm;74804;52.100;5.116;2023-12-22T03:37:08;41.61;35.26;48.50;;
84579;Laerm;74804;52.100;5.116;2023-12-22T03:39:42;45.95;36.22;58.34;;
84579;Laerm;74804;52.100;5.116;2023-12-22T03:42:13;45.89;36.33;55.64;;
84579;Laerm;74804;52.100;5.116;2023-12-22T03:44:45;43.69;36.85;55.32;;
84579;Laerm;74804;52.100;5.116;2023-12-22T03:47:16;45.62;38.67;56.73;;
84579;Laerm;74804;52.100;5.116;2023-12-22T03:49:47;46.65;39.08;59.76;;
84579;Laerm;74804;52.100;5.116;2023-12-22T03:52:18;48.58;39.15;56.65;;
84579;Laerm;74804;52.100;5.116;2023-12-22T03:54:52;42.77;36.47;50.77;;
84579;Laerm;74804;52.100;5.116;2023-12-22T03:57:23;45.45;38.01;52.46;;
84579;Laerm;74804;52.100;5.116;2023-12-22T03:59:54;45.06;36.36;57.52;;
84579;Laerm;74804;52.100;5.116;2023-12-22T04:02:25;46.35;36.13;57.50;;
84579;Laerm;74804;52.100;5.116;2023-12-22T04:04:56;45.32;35.97;55.43;;
84579;Laerm;74804;52.100;5.116;2023-12-22T04:07:27;45.60;37.17;60.59;;
84579;Laerm;74804;52.100;5.116;2023-12-22T04:10:01;45.44;37.12;54.07;;
84579;Laerm;74804;52.100;5.116;2023-12-22T04:12:32;43.56;36.86;50.37;;
84579;Laerm;74804;52.100;5.116;2023-12-22T04:15:04;38.49;34.69;42.80;;
84579;Laerm;74804;52.100;5.116;2023-12-22T04:17:36;46.27;36.72;56.81;;
84579;Laerm;74804;52.100;5.116;2023-12-22T04:20:07;43.22;35.19;50.81;;
84579;Laerm;74804;52.100;5.116;2023-12-22T04:22:40;43.81;35.59;52.75;;
84579;Laerm;74804;52.100;5.116;2023-12-22T04:25:13;40.68;34.89;48.48;;
84579;Laerm;74804;52.100;5.116;2023-12-22T04:27:45;39.45;34.84;48.33;;
84579;Laerm;74804;52.100;5.116;2023-12-22T04:30:17;39.33;34.47;46.87;;
84579;Laerm;74804;52.100;5.116;2023-12-22T04:32:48;38.57;34.51;46.54;;
84579;Laerm;74804;52.100;5.116;2023-12-22T04:35:19;38.70;33.81;54.04;;
84579;Laerm;74804;52.100;5.116;2023-12-22T04:37:50;39.92;35.23;49.37;;
84579;Laerm;74804;52.100;5.116;2023-12-22T04:40:24;40.00;33.54;47.75;;
84579;Laerm;74804;52.100;5.116;2023-12-22T04:42:55;40.38;35.75;49.24;;
84579;Laerm;74804;52.100;5.116;2023-12-22T04:45:26;38.81;34.76;45.83;;
84579;Laerm;74804;52.100;5.116;2023-12-22T04:47:57;40.78;36.02;48.03;;
84579;Laerm;74804;52.100;5.116;2023-12-22T04:50:29;42.06;34.90;53.46;;
84579;Laerm;74804;52.100;5.116;2023-12-22T04:53:00;39.45;35.49;46.74;;
84579;Laerm;74804;52.100;5.116;2023-12-22T04:55:34;45.18;36.30;59.05;;
84579;Laerm;74804;52.100;5.116;2023-12-22T04:58:05;38.74;34.82;45.52;;
84579;Laerm;74804;52.100;5.116;2023-12-22T05:00:36;41.18;35.67;48.86;;
84579;Laerm;74804;52.100;5.116;2023-12-22T05:03:07;44.28;38.12;50.45;;
84579;Laerm;74804;52.100;5.116;2023-12-22T05:05:38;41.45;36.66;49.23;;
84579;Laerm;74804;52.100;5.116;2023-12-22T05:08:09;39.38;36.00;49.92;;
84579;Laerm;74804;52.100;5.116;2023-12-22T05:10:43;39.53;35.83;49.75;;
84579;Laerm;74804;52.100;5.116;2023-12-22T05:13:14;40.17;35.86;50.69;;
84579;Laerm;74804;52.100;5.116;2023-12-22T05:15:45;39.41;35.79;42.90;;
84579;Laerm;74804;52.100;5.116;2023-12-22T05:18:16;40.84;36.54;50.73;;
84579;Laerm;74804;52.100;5.116;2023-12-22T05:20:47;40.82;37.17;49.00;;
84579;Laerm;74804;52.100;5.116;2023-12-22T05:23:20;41.50;38.20;48.46;;
84579;Laerm;74804;52.100;5.116;2023-12-22T05:25:54;39.68;36.03;49.28;;
84579;Laerm;74804;52.100;5.116;2023-12-22T05:28:25;38.95;35.08;43.26;;
84579;Laerm;74804;52.100;5.116;2023-12-22T05:30:56;40.63;36.64;47.04;;
84579;Laerm;74804;52.100;5.116;2023-12-22T05:33:27;39.65;37.01;44.66;;
84579;Laerm;74804;52.100;5.116;2023-12-22T05:35:58;39.22;36.11;45.45;;
84579;Laerm;74804;52.100;5.116;2023-12-22T05:38:30;39.36;35.51;54.69;;
84579;Laerm;74804;52.100;5.116;2023-12-22T05:41:03;41.82;38.46;49.08;;
84579;Laerm;74804;52.100;5.116;2023-12-22T05:43:35;40.30;35.83;46.94;;
84579;Laerm;74804;52.100;5.116;2023-12-22T05:46:06;39.17;36.12;47.48;;
84579;Laerm;74804;52.100;5.116;2023-12-22T05:48:37;40.05;37.10;48.46;;
84579;Laerm;74804;52.100;5.116;2023-12-22T05:51:08;40.62;37.47;46.51;;
84579;Laerm;74804;52.100;5.116;2023-12-22T05:53:41;41.29;37.02;53.67;;
84579;Laerm;74804;52.100;5.116;2023-12-22T05:56:20;44.04;37.51;59.51;;
84579;Laerm;74804;52.100;5.116;2023-12-22T05:58:52;41.33;37.13;52.39;;
84579;Laerm;74804;52.100;5.116;2023-12-22T06:01:23;41.42;37.91;48.34;;
84579;Laerm;74804;52.100;5.116;2023-12-22T06:03:54;41.03;36.95;49.40;;
84579;Laerm;74804;52.100;5.116;2023-12-22T06:06:25;41.15;37.26;45.92;;
84579;Laerm;74804;52.100;5.116;2023-12-22T06:08:57;40.07;37.68;44.07;;
84579;Laerm;74804;52.100;5.116;2023-12-22T06:11:31;41.19;37.99;51.17;;
84579;Laerm;74804;52.100;5.116;2023-12-22T06:14:02;41.18;38.32;49.52;;
84579;Laerm;74804;52.100;5.116;2023-12-22T06:16:33;42.13;37.56;50.38;;
84579;Laerm;74804;52.100;5.116;2023-12-22T06:19:04;42.44;38.19;51.52;;
84579;Laerm;74804;52.100;5.116;2023-12-22T06:21:37;41.50;38.77;48.08;;
84579;Laerm;74804;52.100;5.116;2023-12-22T06:24:08;40.77;37.75;49.45;;
84579;Laerm;74804;52.100;5.116;2023-12-22T06:26:42;43.19;39.87;49.55;;
84579;Laerm;74804;52.100;5.116;2023-12-22T06:29:13;42.15;39.18;50.58;;
84579;Laerm;74804;52.100;5.116;2023-12-22T06:31:44;43.87;40.18;50.11;;
84579;Laerm;74804;52.100;5.116;2023-12-22T06:34:18;43.74;40.02;54.79;;
84579;Laerm;74804;52.100;5.116;2023-12-22T06:36:49;43.82;40.10;50.68;;
84579;Laerm;74804;52.100;5.116;2023-12-22T06:39:20;42.39;38.84;47.01;;
84579;Laerm;74804;52.100;5.116;2023-12-22T06:41:54;43.35;39.53;50.13;;
84579;Laerm;74804;52.100;5.116;2023-12-22T06:44:25;44.62;39.41;58.77;;
84579;Laerm;74804;52.100;5.116;2023-12-22T06:46:58;43.56;38.98;51.01;;
84579;Laerm;74804;52.100;5.116;2023-12-22T06:49:30;42.90;38.79;56.61;;
84579;Laerm;74804;52.100;5.116;2023-12-22T06:52:01;44.25;39.98;50.82;;
84579;Laerm;74804;52.100;5.116;2023-12-22T06:54:34;44.77;40.13;54.31;;
84579;Laerm;74804;52.100;5.116;2023-12-22T06:57:07;43.43;38.78;52.78;;
84579;Laerm;74804;52.100;5.116;2023-12-22T06:59:38;43.81;40.87;48.79;;
84579;Laerm;74804;52.100;5.116;2023-12-22T07:02:10;43.66;39.44;51.94;;
84579;Laerm;74804;52.100;5.116;2023-12-22T07:07:39;44.05;38.57;57.57;;
84579;Laerm;74804;52.100;5.116;2023-12-22T07:10:10;44.29;39.17;58.27;;
84579;Laerm;74804;52.100;5.116;2023-12-22T07:12:43;43.92;38.97;53.60;;
84579;Laerm;74804;52.100;5.116;2023-12-22T07:15:15;42.94;39.50;54.42;;
84579;Laerm;74804;52.100;5.116;2023-12-22T07:17:46;46.56;39.26;59.01;;
84579;Laerm;74804;52.100;5.116;2023-12-22T07:20:17;43.67;39.60;55.29;;
84579;Laerm;74804;52.100;5.116;2023-12-22T07:22:48;43.97;39.92;52.14;;
84579;Laerm;74804;52.100;5.116;2023-12-22T07:25:21;47.85;40.76;57.21;;
84579;Laerm;74804;52.100;5.116;2023-12-22T07:27:55;51.14;40.33;62.31;;
84579;Laerm;74804;52.100;5.116;2023-12-22T07:30:26;51.54;41.19;60.93;;
84579;Laerm;74804;52.100;5.116;2023-12-22T07:32:57;50.03;40.32;60.14;;
84579;Laerm;74804;52.100;5.116;2023-12-22T07:35:28;51.89;40.15;58.78;;
84579;Laerm;74804;52.100;5.116;2023-12-22T07:37:59;48.69;40.60;59.26;;
84579;Laerm;74804;52.100;5.116;2023-12-22T07:40:30;46.19;41.06;62.32;;
84579;Laerm;74804;52.100;5.116;2023-12-22T07:43:04;44.98;41.77;54.86;;
84579;Laerm;74804;52.100;5.116;2023-12-22T07:45:36;47.07;40.90;59.74;;
84579;Laerm;74804;52.100;5.116;2023-12-22T07:48:07;46.10;42.49;57.53;;
84579;Laerm;74804;52.100;5.116;2023-12-22T07:50:39;47.93;42.18;61.14;;
84579;Laerm;74804;52.100;5.116;2023-12-22T07:53:10;47.09;42.55;61.08;;
84579;Laerm;74804;52.100;5.116;2023-12-22T07:55:41;48.50;41.95;58.38;;
84579;Laerm;74804;52.100;5.116;2023-12-22T07:58:15;48.33;42.04;67.91;;
84579;Laerm;74804;52.100;5.116;2023-12-22T08:00:47;45.76;41.54;58.66;;
84579;Laerm;74804;52.100;5.116;2023-12-22T08:03:18;49.05;41.47;76.06;;
84579;Laerm;74804;52.100;5.116;2023-12-22T08:05:49;46.08;41.37;52.65;;
84579;Laerm;74804;52.100;5.116;2023-12-22T08:08:20;46.46;41.27;63.14;;
84579;Laerm;74804;52.100;5.116;2023-12-22T08:10:51;49.43;46.04;56.65;;
84579;Laerm;74804;52.100;5.116;2023-12-22T08:13:25;54.24;49.69;62.72;;
84579;Laerm;74804;52.100;5.116;2023-12-22T08:15:56;48.45;44.34;55.76;;
84579;Laerm;74804;52.100;5.116;2023-12-22T08:18:27;45.53;42.53;52.53;;
84579;Laerm;74804;52.100;5.116;2023-12-22T08:20:58;47.03;43.90;54.47;;
84579;Laerm;74804;52.100;5.116;2023-12-22T08:23:29;50.06;46.15;57.84;;
84579;Laerm;74804;52.100;5.116;2023-12-22T08:26:01;49.28;44.92;58.57;;
84579;Laerm;74804;52.100;5.116;2023-12-22T08:28:34;51.42;45.32;60.63;;
84579;Laerm;74804;52.100;5.116;2023-12-22T08:31:06;51.40;46.94;63.59;;
84579;Laerm;74804;52.100;5.116;2023-12-22T08:33:37;50.48;45.59;63.27;;
84579;Laerm;74804;52.100;5.116;2023-12-22T08:36:09;59.05;45.32;70.72;;
84579;Laerm;74804;52.100;5.116;2023-12-22T08:38:40;57.98;52.90;66.80;;
84579;Laerm;74804;52.100;5.116;2023-12-22T08:41:11;52.93;43.68;64.68;;
84579;Laerm;74804;52.100;5.116;2023-12-22T08:43:45;48.10;43.43;59.36;;
84579;Laerm;74804;52.100;5.116;2023-12-22T08:46:16;46.99;42.35;61.17;;
84579;Laerm;74804;52.100;5.116;2023-12-22T08:48:47;46.35;42.20;61.41;;
84579;Laerm;74804;52.100;5.116;2023-12-22T08:51:18;49.38;43.58;65.93;;
84579;Laerm;74804;52.100;5.116;2023-12-22T08:53:50;47.73;43.54;57.08;;
84579;Laerm;74804;52.100;5.116;2023-12-22T08:56:22;48.50;42.71;58.77;;
84579;Laerm;74804;52.100;5.116;2023-12-22T08:58:56;52.76;46.64;60.19;;
84579;Laerm;74804;52.100;5.116;2023-12-22T09:01:27;53.30;48.15;64.72;;
84579;Laerm;74804;52.100;5.116;2023-12-22T09:03:58;57.34;49.27;68.52;;
84579;Laerm;74804;52.100;5.116;2023-12-22T09:06:29;49.03;44.90;61.16;;
84579;Laerm;74804;52.100;5.116;2023-12-22T09:09:01;47.40;43.26;56.10;;
84579;Laerm;74804;52.100;5.116;2023-12-22T09:11:33;51.13;43.30;77.08;;
84579;Laerm;74804;52.100;5.116;2023-12-22T09:14:07;49.84;44.87;62.67;;
84579;Laerm;74804;52.100;5.116;2023-12-22T09:16:39;48.02;44.01;66.67;;
84579;Laerm;74804;52.100;5.116;2023-12-22T09:19:12;49.23;44.37;60.66;;
84579;Laerm;74804;52.100;5.116;2023-12-22T09:21:43;54.50;45.43;73.84;;
84579;Laerm;74804;52.100;5.116;2023-12-22T09:24:14;50.74;43.03;69.53;;
84579;Laerm;74804;52.100;5.116;2023-12-22T09:26:45;47.46;43.87;57.81;;
84579;Laerm;74804;52.100;5.116;2023-12-22T09:29:20;47.78;43.81;55.43;;
84579;Laerm;74804;52.100;5.116;2023-12-22T09:31:52;46.55;43.78;61.06;;
84579;Laerm;74804;52.100;5.116;2023-12-22T09:34:25;49.54;44.04;64.39;;
84579;Laerm;74804;52.100;5.116;2023-12-22T09:36:56;47.21;42.87;56.20;;
84579;Laerm;74804;52.100;5.116;2023-12-22T09:39:27;47.31;42.94;54.03;;
84579;Laerm;74804;52.100;5.116;2023-12-22T09:41:59;48.50;44.32;56.97;;
84579;Laerm;74804;52.100;5.116;2023-12-22T09:44:33;50.59;43.36;72.79;;
84579;Laerm;74804;52.100;5.116;2023-12-22T09:47:09;56.18;43.85;78.84;;
84579;Laerm;74804;52.100;5.116;2023-12-22T09:49:40;50.14;43.37;58.97;;
84579;Laerm;74804;52.100;5.116;2023-12-22T09:52:11;47.79;43.46;60.13;;
84579;Laerm;74804;52.100;5.116;2023-12-22T09:54:44;46.98;42.62;55.14;;
84579;Laerm;74804;52.100;5.116;2023-12-22T09:57:15;47.54;43.32;69.00;;
84579;Laerm;74804;52.100;5.116;2023-12-22T09:59:49;46.62;42.51;57.63;;
84579;Laerm;74804;52.100;5.116;2023-12-22T10:02:22;46.20;42.68;52.11;;
84579;Laerm;74804;52.100;5.116;2023-12-22T10:04:55;46.72;41.81;57.60;;
84579;Laerm;74804;52.100;5.116;2023-12-22T10:07:26;46.91;42.62;63.82;;
84579;Laerm;74804;52.100;5.116;2023-12-22T10:09:57;46.46;42.56;57.27;;
84579;Laerm;74804;52.100;5.116;2023-12-22T10:12:28;47.56;42.49;60.67;;
84579;Laerm;74804;52.100;5.116;2023-12-22T10:15:04;46.66;41.58;59.49;;
84579;Laerm;74804;52.100;5.116;2023-12-22T10:17:36;48.55;42.66;60.39;;
84579;Laerm;74804;52.100;5.116;2023-12-22T10:20:08;46.64;42.37;58.11;;
84579;Laerm;74804;52.100;5.116;2023-12-22T10:22:39;46.65;42.13;54.84;;
84579;Laerm;74804;52.100;5.116;2023-12-22T10:25:10;45.88;40.67;58.78;;
84579;Laerm;74804;52.100;5.116;2023-12-22T10:27:42;49.87;43.47;70.70;;
84579;Laerm;74804;52.100;5.116;2023-12-22T10:30:15;47.66;42.26;58.17;;
84579;Laerm;74804;52.100;5.116;2023-12-22T10:32:47;48.76;45.06;58.20;;
84579;Laerm;74804;52.100;5.116;2023-12-22T10:35:19;47.78;43.53;65.15;;
84579;Laerm;74804;52.100;5.116;2023-12-22T10:37:51;48.19;43.26;57.41;;
84579;Laerm;74804;52.100;5.116;2023-12-22T10:40:23;50.93;46.35;60.06;;
84579;Laerm;74804;52.100;5.116;2023-12-22T10:42:54;49.15;42.95;68.85;;
84579;Laerm;74804;52.100;5.116;2023-12-22T10:45:28;50.45;43.10;68.30;;
84579;Laerm;74804;52.100;5.116;2023-12-22T10:47:59;48.81;43.68;62.67;;
84579;Laerm;74804;52.100;5.116;2023-12-22T10:50:31;46.90;43.61;55.75;;
84579;Laerm;74804;52.100;5.116;2023-12-22T10:53:05;48.90;44.34;59.13;;
84579;Laerm;74804;52.100;5.116;2023-12-22T10:55:36;48.48;42.99;57.18;;
84579;Laerm;74804;52.100;5.116;2023-12-22T10:58:07;49.66;42.81;68.20;;
84579;Laerm;74804;52.100;5.116;2023-12-22T11:00:42;46.67;42.49;57.90;;
84579;Laerm;74804;52.100;5.116;2023-12-22T11:03:16;48.44;43.10;62.91;;
84579;Laerm;74804;52.100;5.116;2023-12-22T11:05:48;47.62;43.22;54.72;;
84579;Laerm;74804;52.100;5.116;2023-12-22T11:08:21;46.98;43.45;55.54;;
84579;Laerm;74804;52.100;5.116;2023-12-22T11:10:56;48.80;43.76;58.61;;
84579;Laerm;74804;52.100;5.116;2023-12-22T11:13:28;46.36;42.66;57.20;;
84579;Laerm;74804;52.100;5.116;2023-12-22T11:16:01;47.43;42.94;61.46;;
84579;Laerm;74804;52.100;5.116;2023-12-22T11:18:33;47.74;43.61;57.00;;
84579;Laerm;74804;52.100;5.116;2023-12-22T11:21:05;47.69;43.79;54.45;;
84579;Laerm;74804;52.100;5.116;2023-12-22T11:23:37;49.44;43.32;62.24;;
84579;Laerm;74804;52.100;5.116;2023-12-22T11:26:09;47.61;42.33;58.39;;
84579;Laerm;74804;52.100;5.116;2023-12-22T11:28:41;46.35;41.94;55.43;;
84579;Laerm;74804;52.100;5.116;2023-12-22T11:31:16;50.22;43.60;63.43;;
84579;Laerm;74804;52.100;5.116;2023-12-22T11:33:48;59.74;45.71;82.15;;
84579;Laerm;74804;52.100;5.116;2023-12-22T11:36:19;47.51;43.93;58.61;;
84579;Laerm;74804;52.100;5.116;2023-12-22T11:38:51;49.71;43.95;60.28;;
84579;Laerm;74804;52.100;5.116;2023-12-22T11:41:22;49.06;44.15;63.13;;
84579;Laerm;74804;52.100;5.116;2023-12-22T11:43:55;51.88;43.29;71.32;;
84579;Laerm;74804;52.100;5.116;2023-12-22T11:46:30;46.62;42.12;56.39;;
84579;Laerm;74804;52.100;5.116;2023-12-22T11:49:02;46.95;43.35;65.74;;
84579;Laerm;74804;52.100;5.116;2023-12-22T11:51:33;47.09;43.56;53.18;;
84579;Laerm;74804;52.100;5.116;2023-12-22T11:54:13;46.69;43.54;52.52;;
84579;Laerm;74804;52.100;5.116;2023-12-22T11:57:04;45.95;41.99;53.43;;
84579;Laerm;74804;52.100;5.116;2023-12-22T11:59:35;47.69;42.38;58.49;;
84579;Laerm;74804;52.100;5.116;2023-12-22T12:02:10;47.76;42.94;68.97;;
84579;Laerm;74804;52.100;5.116;2023-12-22T12:04:46;46.24;42.20;52.41;;
84579;Laerm;74804;52.100;5.116;2023-12-22T12:10:04;48.46;44.25;59.29;;
84579;Laerm;74804;52.100;5.116;2023-12-22T12:12:36;48.43;43.75;61.60;;
84579;Laerm;74804;52.100;5.116;2023-12-22T12:15:08;51.79;45.91;61.68;;
84579;Laerm;74804;52.100;5.116;2023-12-22T12:17:43;51.30;44.71;67.63;;
84579;Laerm;74804;52.100;5.116;2023-12-22T12:20:14;48.89;43.54;65.54;;
84579;Laerm;74804;52.100;5.116;2023-12-22T12:22:47;48.55;43.63;56.42;;
84579;Laerm;74804;52.100;5.116;2023-12-22T12:25:18;47.32;43.06;54.96;;
84579;Laerm;74804;52.100;5.116;2023-12-22T12:28:00;51.84;43.91;63.36;;
84579;Laerm;74804;52.100;5.116;2023-12-22T12:30:32;50.54;44.28;68.28;;
84579;Laerm;74804;52.100;5.116;2023-12-22T12:33:08;51.30;43.90;65.67;;
84579;Laerm;74804;52.100;5.116;2023-12-22T12:35:40;52.36;44.38;70.58;;
84579;Laerm;74804;52.100;5.116;2023-12-22T12:38:12;52.82;43.94;71.42;;
84579;Laerm;74804;52.100;5.116;2023-12-22T12:40:44;51.79;45.06;64.61;;
84579;Laerm;74804;52.100;5.116;2023-12-22T12:43:16;55.93;43.70;70.88;;
84579;Laerm;74804;52.100;5.116;2023-12-22T12:45:48;51.71;44.77;70.30;;
84579;Laerm;74804;52.100;5.116;2023-12-22T12:48:21;51.75;43.19;66.84;;
84579;Laerm;74804;52.100;5.116;2023-12-22T12:50:52;50.39;43.52;63.58;;
84579;Laerm;74804;52.100;5.116;2023-12-22T12:53:24;54.65;44.78;69.32;;
84579;Laerm;74804;52.100;5.116;2023-12-22T12:55:55;52.17;46.25;65.55;;
84579;Laerm;74804;52.100;5.116;2023-12-22T12:58:27;61.87;45.17;77.05;;
84579;Laerm;74804;52.100;5.116;2023-12-22T13:01:06;51.70;44.29;67.48;;
84579;Laerm;74804;52.100;5.116;2023-12-22T13:03:54;65.47;43.95;81.96;;
84579;Laerm;74804;52.100;5.116;2023-12-22T13:06:25;50.86;44.61;63.38;;
84579;Laerm;74804;52.100;5.116;2023-12-22T13:08:56;48.00;44.67;55.05;;
84579;Laerm;74804;52.100;5.116;2023-12-22T13:11:28;47.74;43.22;55.36;;
84579;Laerm;74804;52.100;5.116;2023-12-22T13:14:00;46.89;42.91;57.55;;
84579;Laerm;74804;52.100;5.116;2023-12-22T13:16:34;48.69;43.69;71.06;;
84579;Laerm;74804;52.100;5.116;2023-12-22T13:19:08;55.84;44.17;71.80;;
84579;Laerm;74804;52.100;5.116;2023-12-22T13:21:39;51.59;46.03;62.25;;
84579;Laerm;74804;52.100;5.116;2023-12-22T13:24:11;49.23;43.84;55.47;;
84579;Laerm;74804;52.100;5.116;2023-12-22T13:26:44;51.23;44.49;62.37;;
84579;Laerm;74804;52.100;5.116;2023-12-22T13:29:16;48.76;42.41;55.62;;
84579;Laerm;74804;52.100;5.116;2023-12-22T13:31:47;48.48;41.95;59.52;;
84579;Laerm;74804;52.100;5.116;2023-12-22T13:34:20;45.88;41.61;56.64;;
84579;Laerm;74804;52.100;5.116;2023-12-22T13:36:52;46.92;42.85;60.08;;
84579;Laerm;74804;52.100;5.116;2023-12-22T13:39:25;49.19;44.09;62.80;;
84579;Laerm;74804;52.100;5.116;2023-12-22T13:41:57;51.35;42.45;61.23;;
84579;Laerm;74804;52.100;5.116;2023-12-22T13:44:29;48.35;44.21;58.83;;
84579;Laerm;74804;52.100;5.116;2023-12-22T13:47:02;49.54;43.86;65.88;;
84579;Laerm;74804;52.100;5.116;2023-12-22T13:49:36;48.12;44.10;67.23;;
84579;Laerm;74804;52.100;5.116;2023-12-22T13:52:07;49.56;42.96;57.75;;
84579;Laerm;74804;52.100;5.116;2023-12-22T13:54:38;49.10;42.71;54.08;;
84579;Laerm;74804;52.100;5.116;2023-12-22T13:57:18;50.68;44.49;61.74;;
84579;Laerm;74804;52.100;5.116;2023-12-22T13:59:50;50.00;43.96;59.96;;
84579;Laerm;74804;52.100;5.116;2023-12-22T14:02:21;47.05;43.58;54.05;;
84579;Laerm;74804;52.100;5.116;2023-12-22T14:04:55;47.42;43.14;56.62;;
84579;Laerm;74804;52.100;5.116;2023-12-22T14:07:26;48.07;44.07;63.44;;
84579;Laerm;74804;52.100;5.116;2023-12-22T14:09:57;50.87;45.97;58.01;;
84579;Laerm;74804;52.100;5.116;2023-12-22T14:12:35;51.30;44.44;63.92;;
84579;Laerm;74804;52.100;5.116;2023-12-22T14:15:07;46.97;42.95;56.82;;
84579;Laerm;74804;52.100;5.116;2023-12-22T14:17:39;48.57;43.21;56.79;;